Time;durP1;ratioP1;P1;durP2;ratioP2;P2;SDS_P1;SDS_P2;PMS_P1;PMS_P2;Temp;Humidity;BMP_temperature;BMP_pressure;BME280_temperature;BME280_humidity;BME280_pressure;Samples;Min_cycle;Max_cycle;Signal;HPM_P1;HPM_P2
2022/09/29 00:00:52;;;;;;;6.40;5.80;;;6.90;99.90;;;;;;5077308;28;20119;-26
2022/09/29 00:03:19;;;;;;;6.65;6.05;;;6.90;99.90;;;;;;5076192;28;20366;-26
2022/09/29 00:05:53;;;;;;;5.88;5.38;;;6.90;99.90;;;;;;5069496;28;20036;-26
2022/09/29 00:08:21;;;;;;;6.15;5.65;;;6.90;99.90;;;;;;5072140;28;20040;-26
2022/09/29 00:10:47;;;;;;;5.85;5.35;;;6.80;99.90;;;;;;5057216;28;20036;-26
2022/09/29 00:13:14;;;;;;;6.03;5.43;;;6.80;99.90;;;;;;5065827;28;20042;-26
2022/09/29 00:15:40;;;;;;;5.82;5.25;;;6.80;99.90;;;;;;5067692;28;20543;-26
2022/09/29 00:18:07;;;;;;;6.82;6.20;;;6.70;99.90;;;;;;5056083;28;20083;-26
2022/09/29 00:20:34;;;;;;;6.28;5.78;;;6.70;99.90;;;;;;5064525;28;20388;-26
2022/09/29 00:22:59;;;;;;;6.93;6.32;;;6.60;99.90;;;;;;5070177;28;20075;-26
2022/09/29 00:25:25;;;;;;;5.10;4.70;;;6.60;99.90;;;;;;5056934;28;20429;-26
2022/09/29 00:27:51;;;;;;;5.75;5.25;;;6.60;99.90;;;;;;5071554;28;20393;-26
2022/09/29 00:30:17;;;;;;;6.22;4.88;;;6.60;99.90;;;;;;5072584;28;20040;-26
2022/09/29 00:32:43;;;;;;;5.70;5.20;;;6.50;99.90;;;;;;5073588;28;20028;-26
2022/09/29 00:35:10;;;;;;;5.90;5.32;;;6.50;99.90;;;;;;5056833;28;20072;-26
2022/09/29 00:37:36;;;;;;;5.80;5.30;;;6.40;99.90;;;;;;5064307;28;20417;-26
2022/09/29 00:40:03;;;;;;;5.88;5.38;;;6.40;99.90;;;;;;5077213;28;20140;-26
2022/09/29 00:42:31;;;;;;;5.70;5.15;;;6.30;99.90;;;;;;5076296;28;20047;-26
2022/09/29 00:45:06;;;;;;;6.55;5.95;;;6.30;99.90;;;;;;5072016;28;20470;-26
2022/09/29 00:47:35;;;;;;;6.38;5.88;;;6.30;99.90;;;;;;5076247;28;20048;-26
2022/09/29 00:50:16;;;;;;;6.22;5.63;;;6.30;99.90;;;;;;5071634;28;20431;-25
2022/09/29 00:52:51;;;;;;;6.60;6.00;;;6.20;99.90;;;;;;5056114;28;20083;-25
2022/09/29 00:55:35;;;;;;;7.38;6.78;;;6.20;99.90;;;;;;5055140;28;20478;-25
2022/09/29 00:58:17;;;;;;;;;;;6.20;99.90;;;;;;5070964;28;20040;-25
2022/09/29 01:00:43;;;;;;;7.03;6.38;;;6.20;99.90;;;;;;5074553;28;20284;-26
2022/09/29 01:03:14;;;;;;;8.07;7.30;;;6.10;99.90;;;;;;5074185;28;20042;-26
2022/09/29 01:05:46;;;;;;;7.22;6.63;;;6.10;99.90;;;;;;5074097;28;20039;-26
2022/09/29 01:08:19;;;;;;;8.18;6.70;;;6.00;99.90;;;;;;5067156;28;20486;-26
2022/09/29 01:10:49;;;;;;;6.90;6.25;;;6.00;99.90;;;;;;5056650;28;20485;-26
2022/09/29 01:13:15;;;;;;;7.30;6.60;;;6.00;99.90;;;;;;5076202;28;20040;-25
2022/09/29 01:15:41;;;;;;;7.72;6.70;;;5.90;99.90;;;;;;5076228;28;20459;-26
2022/09/29 01:18:07;;;;;;;6.90;6.20;;;5.90;99.90;;;;;;5070926;28;20045;-26
2022/09/29 01:20:56;;;;;;;7.70;6.47;;;5.90;99.90;;;;;;5066891;28;20404;-26
2022/09/29 01:23:51;;;;;;;6.55;5.97;;;5.80;99.90;;;;;;5061536;28;20055;-26
2022/09/29 01:26:42;;;;;;;5.88;5.38;;;5.80;99.90;;;;;;5048151;28;20044;-26
2022/09/29 01:29:20;;;;;;;7.95;6.65;;;5.80;99.90;;;;;;5075535;28;20040;-26
2022/09/29 01:32:31;;;;;;;6.13;5.53;;;5.70;99.90;;;;;;5056013;28;20075;-26
2022/09/29 01:35:20;;;;;;;7.22;6.55;;;5.70;99.90;;;;;;5055794;28;20096;-26
2022/09/29 01:38:17;;;;;;;7.80;7.00;;;5.60;99.90;;;;;;5073546;28;20123;-26
2022/09/29 01:41:01;;;;;;;7.80;6.90;;;5.60;99.90;;;;;;5055770;28;20036;-26
2022/09/29 01:43:39;;;;;;;8.00;6.47;;;5.70;99.90;;;;;;5055247;28;20049;-26
2022/09/29 01:46:11;;;;;;;6.47;5.88;;;5.70;99.90;;;;;;5074283;28;20047;-26
2022/09/29 01:48:47;;;;;;;9.32;6.90;;;5.70;99.90;;;;;;5093601;28;20039;-26
2022/09/29 01:51:20;;;;;;;7.53;6.82;;;5.60;99.90;;;;;;5061145;28;20555;-26
2022/09/29 01:53:51;;;;;;;9.13;7.65;;;5.60;99.90;;;;;;5069379;28;20024;-26
2022/09/29 01:56:49;;;;;;;41.95;10.65;;;5.60;99.90;;;;;;5061283;28;20037;-26
2022/09/29 01:59:22;;;;;;;57.15;10.23;;;5.70;99.90;;;;;;5039851;28;20048;-26
2022/09/29 02:01:50;;;;;;;69.85;12.13;;;5.70;99.90;;;;;;5062345;28;20043;-26
2022/09/29 02:04:25;;;;;;;43.30;10.32;;;5.70;99.90;;;;;;5075236;28;20039;-26
2022/09/29 02:06:59;;;;;;;51.80;9.63;;;5.70;99.90;;;;;;5061024;28;20115;-26
2022/09/29 02:09:34;;;;;;;59.63;10.63;;;5.70;99.90;;;;;;5064681;28;20043;-26
2022/09/29 02:12:02;;;;;;;40.05;9.48;;;5.70;99.90;;;;;;5072316;28;20054;-26
2022/09/29 02:14:34;;;;;;;50.40;9.60;;;5.70;99.90;;;;;;5073865;28;20071;-26
2022/09/29 02:17:38;;;;;;;24.08;8.35;;;5.70;99.90;;;;;;5074031;28;20032;-26
2022/09/29 02:20:05;;;;;;;17.70;8.53;;;5.70;99.90;;;;;;5016272;28;20125;-26
2022/09/29 02:22:31;;;;;;;11.52;6.95;;;5.70;99.90;;;;;;5054784;28;20387;-26
2022/09/29 02:24:58;;;;;;;17.13;8.18;;;5.60;99.90;;;;;;5071807;28;20032;-26
2022/09/29 02:27:27;;;;;;;17.13;7.47;;;5.60;99.90;;;;;;5074858;28;20048;-26
2022/09/29 02:29:54;;;;;;;7.05;6.22;;;5.60;99.90;;;;;;5074835;28;20044;-26
2022/09/29 02:32:19;;;;;;;20.13;7.93;;;5.50;99.90;;;;;;5074201;28;20040;-26
2022/09/29 02:34:49;;;;;;;19.25;7.63;;;5.50;99.90;;;;;;5069444;28;20109;-26
2022/09/29 02:37:23;;;;;;;13.75;7.75;;;5.50;99.90;;;;;;5062276;28;20044;-26
2022/09/29 02:40:01;;;;;;;16.60;8.23;;;5.40;99.90;;;;;;5074422;28;20048;-26
2022/09/29 02:42:43;;;;;;;15.38;8.38;;;5.40;99.90;;;;;;5074161;28;20050;-26
2022/09/29 02:45:23;;;;;;;9.07;8.27;;;5.40;99.90;;;;;;5074033;28;20036;-26
2022/09/29 02:48:23;;;;;;;8.82;7.97;;;5.40;99.90;;;;;;5063640;28;20048;-26
2022/09/29 02:50:55;;;;;;;8.60;7.80;;;5.40;99.90;;;;;;5077462;28;20044;-26
2022/09/29 02:53:36;;;;;;;13.48;8.80;;;5.40;99.90;;;;;;5074060;28;20143;-26
2022/09/29 02:56:28;;;;;;;10.98;8.50;;;5.40;99.90;;;;;;5060405;28;20059;-25
2022/09/29 02:59:02;;;;;;;51.47;11.30;;;5.40;99.90;;;;;;5060906;28;20052;-26
2022/09/29 03:01:33;;;;;;;34.90;10.88;;;5.40;99.90;;;;;;5074563;28;20035;-26
2022/09/29 03:03:59;;;;;;;71.55;12.45;;;5.50;99.90;;;;;;5060134;28;20040;-26
2022/09/29 03:06:26;;;;;;;92.72;14.18;;;5.50;99.90;;;;;;5074232;28;20448;-25
2022/09/29 03:08:52;;;;;;;113.40;16.20;;;5.60;99.90;;;;;;5057423;28;20293;-25
2022/09/29 03:11:18;;;;;;;73.03;13.13;;;5.60;99.90;;;;;;5070832;28;20439;-26
2022/09/29 03:13:44;;;;;;;51.03;12.10;;;5.60;99.90;;;;;;5073845;28;20132;-26
2022/09/29 03:16:10;;;;;;;24.98;10.77;;;5.60;99.90;;;;;;5073981;28;20217;-26
2022/09/29 03:18:36;;;;;;;60.33;11.88;;;5.60;99.90;;;;;;5064014;28;20102;-26
2022/09/29 03:21:02;;;;;;;52.35;13.20;;;5.60;99.90;;;;;;5053423;28;20043;-25
2022/09/29 03:23:28;;;;;;;56.10;12.77;;;5.60;99.90;;;;;;5068011;28;20033;-26
2022/09/29 03:25:53;;;;;;;21.30;10.85;;;5.60;99.90;;;;;;5074161;28;20537;-25
2022/09/29 03:28:22;;;;;;;50.30;12.48;;;5.60;99.90;;;;;;5038086;28;20060;-25
2022/09/29 03:30:48;;;;;;;46.60;11.35;;;5.60;99.90;;;;;;5069647;28;20039;-25
2022/09/29 03:33:14;;;;;;;30.23;12.40;;;5.60;99.90;;;;;;5074204;28;20047;-25
2022/09/29 03:35:40;;;;;;;46.33;11.85;;;5.50;99.90;;;;;;5050719;28;20044;-27
2022/09/29 03:38:09;;;;;;;25.48;11.77;;;5.50;99.90;;;;;;5077361;28;20332;-26
2022/09/29 03:40:35;;;;;;;29.27;11.93;;;5.60;99.90;;;;;;5064995;28;20165;-25
2022/09/29 03:43:01;;;;;;;26.60;12.00;;;5.50;99.90;;;;;;5064741;28;20131;-25
2022/09/29 03:45:26;;;;;;;21.08;13.35;;;5.60;99.90;;;;;;5076780;28;20032;-25
2022/09/29 03:47:52;;;;;;;19.70;13.90;;;5.60;99.90;;;;;;5072002;28;20350;-25
2022/09/29 03:50:18;;;;;;;23.00;13.55;;;5.60;99.90;;;;;;5057738;28;20500;-25
2022/09/29 03:52:44;;;;;;;20.60;13.75;;;5.60;99.90;;;;;;5077825;28;20040;-25
2022/09/29 03:55:09;;;;;;;19.27;13.23;;;5.60;99.90;;;;;;5063440;28;20047;-25
2022/09/29 03:57:35;;;;;;;21.05;13.65;;;5.60;99.90;;;;;;5077377;28;20094;-25
2022/09/29 04:00:02;;;;;;;25.35;13.63;;;5.60;99.90;;;;;;5077864;28;20428;-25
2022/09/29 04:02:28;;;;;;;19.73;14.73;;;5.60;99.90;;;;;;5077694;28;20024;-26
2022/09/29 04:04:54;;;;;;;16.77;13.73;;;5.60;99.90;;;;;;5077547;28;20043;-25
2022/09/29 04:07:19;;;;;;;23.75;14.00;;;5.60;99.90;;;;;;5074457;28;20029;-25
2022/09/29 04:09:45;;;;;;;45.55;14.45;;;5.60;99.90;;;;;;5049825;28;20076;-25
2022/09/29 04:12:11;;;;;;;64.53;16.23;;;5.60;99.90;;;;;;5060188;28;20039;-25
2022/09/29 04:14:37;;;;;;;46.55;16.13;;;5.60;99.90;;;;;;5077028;28;20028;-25
2022/09/29 04:17:02;;;;;;;53.17;16.60;;;5.60;99.90;;;;;;5060148;28;20082;-25
2022/09/29 04:19:28;;;;;;;34.55;14.43;;;5.60;99.90;;;;;;5057767;28;20075;-25
2022/09/29 04:21:54;;;;;;;39.92;16.70;;;5.50;99.90;;;;;;5057310;28;20091;-25
2022/09/29 04:24:20;;;;;;;49.42;16.55;;;5.50;99.90;;;;;;5057173;28;20040;-26
2022/09/29 04:26:45;;;;;;;19.67;13.70;;;5.40;99.90;;;;;;5063172;28;20382;-26
2022/09/29 04:29:14;;;;;;;26.73;14.20;;;5.40;99.90;;;;;;5064525;28;20037;-25
2022/09/29 04:31:40;;;;;;;17.73;13.35;;;5.40;99.90;;;;;;5070724;28;20032;-25
2022/09/29 04:34:06;;;;;;;20.73;14.05;;;5.30;99.90;;;;;;5057160;28;20051;-25
2022/09/29 04:36:31;;;;;;;25.08;14.27;;;5.30;99.90;;;;;;5057651;28;20402;-26
2022/09/29 04:38:57;;;;;;;18.52;13.68;;;5.20;99.90;;;;;;5047492;28;20036;-25
2022/09/29 04:41:23;;;;;;;20.92;13.80;;;5.20;99.90;;;;;;5045619;28;20052;-25
2022/09/29 04:43:49;;;;;;;15.25;11.32;;;5.20;99.90;;;;;;5056539;28;20559;-25
2022/09/29 04:46:14;;;;;;;13.55;12.15;;;5.20;99.90;;;;;;5056798;28;20371;-25
2022/09/29 04:48:41;;;;;;;20.63;12.10;;;5.10;99.90;;;;;;5056177;28;20497;-26
2022/09/29 04:51:09;;;;;;;16.98;13.30;;;5.00;99.90;;;;;;5064884;28;20101;-25
2022/09/29 04:53:36;;;;;;;16.02;13.13;;;5.00;99.90;;;;;;5072305;28;20044;-25
2022/09/29 04:56:07;;;;;;;22.13;12.48;;;5.00;99.90;;;;;;5075437;28;20394;-25
2022/09/29 04:58:33;;;;;;;17.92;10.88;;;5.00;99.90;;;;;;5076467;28;20557;-25
2022/09/29 05:01:07;;;;;;;12.50;11.20;;;4.90;99.90;;;;;;5076459;28;20039;-25
2022/09/29 05:03:33;;;;;;;14.85;12.93;;;4.90;99.90;;;;;;5061609;28;20111;-25
2022/09/29 05:05:59;;;;;;;24.35;13.75;;;4.90;99.90;;;;;;5076316;28;20090;-25
2022/09/29 05:08:24;;;;;;;20.60;13.85;;;4.90;99.90;;;;;;5081774;28;20072;-25
2022/09/29 05:10:51;;;;;;;48.22;16.90;;;4.90;99.90;;;;;;5071286;28;20416;-25
2022/09/29 05:13:16;;;;;;;21.77;14.98;;;4.90;99.90;;;;;;5068614;28;20036;-26
2022/09/29 05:15:42;;;;;;;29.67;15.13;;;4.90;99.90;;;;;;5067082;28;20561;-25
2022/09/29 05:18:08;;;;;;;23.55;12.60;;;4.90;99.90;;;;;;5064413;28;20083;-26
2022/09/29 05:20:34;;;;;;;33.55;13.82;;;4.90;99.90;;;;;;5061378;28;20451;-25
2022/09/29 05:22:59;;;;;;;38.28;11.82;;;4.90;99.90;;;;;;5070016;28;20492;-26
2022/09/29 05:25:26;;;;;;;40.17;13.20;;;4.90;99.90;;;;;;5068115;28;20528;-26
2022/09/29 05:27:52;;;;;;;49.15;13.68;;;4.80;99.90;;;;;;5076003;28;20040;-26
2022/09/29 05:30:18;;;;;;;46.47;13.40;;;4.70;99.90;;;;;;5075043;28;20062;-26
2022/09/29 05:32:44;;;;;;;54.40;13.77;;;4.80;99.90;;;;;;5074519;28;20028;-25
2022/09/29 05:35:10;;;;;;;52.13;13.73;;;4.70;99.90;;;;;;5073776;28;20035;-26
2022/09/29 05:37:36;;;;;;;81.20;14.23;;;4.70;99.90;;;;;;5063752;28;20040;-26
2022/09/29 05:40:03;;;;;;;31.63;12.05;;;4.70;99.90;;;;;;5052817;28;20040;-26
2022/09/29 05:42:30;;;;;;;57.97;13.23;;;4.60;99.90;;;;;;5061234;28;20132;-26
2022/09/29 05:44:55;;;;;;;35.85;12.82;;;4.60;99.90;;;;;;5073116;28;20028;-26
2022/09/29 05:47:22;;;;;;;25.15;12.13;;;4.60;99.90;;;;;;5073920;28;20097;-25
2022/09/29 05:49:48;;;;;;;29.42;13.60;;;4.60;99.90;;;;;;5070166;28;20109;-26
2022/09/29 05:52:14;;;;;;;15.30;11.88;;;4.60;99.90;;;;;;5073069;28;20575;-26
2022/09/29 05:54:39;;;;;;;20.92;11.63;;;4.60;99.90;;;;;;5064052;28;20159;-25
2022/09/29 05:57:05;;;;;;;12.88;11.57;;;4.60;99.90;;;;;;5059453;28;20389;-26
2022/09/29 05:59:31;;;;;;;17.30;12.73;;;4.60;99.90;;;;;;5066387;28;20083;-26
2022/09/29 06:01:57;;;;;;;16.27;13.02;;;4.60;99.90;;;;;;5070546;28;20032;-26
2022/09/29 06:04:22;;;;;;;21.85;13.52;;;4.60;99.90;;;;;;5075283;28;20088;-26
2022/09/29 06:06:48;;;;;;;13.85;11.90;;;4.60;99.90;;;;;;5075078;28;20039;-26
2022/09/29 06:09:14;;;;;;;19.98;13.05;;;4.60;99.90;;;;;;5055974;28;20277;-26
2022/09/29 06:11:40;;;;;;;17.15;14.10;;;4.60;99.90;;;;;;5062338;28;20071;-26
2022/09/29 06:14:06;;;;;;;14.90;13.15;;;4.70;99.90;;;;;;5057760;28;20051;-26
2022/09/29 06:16:32;;;;;;;17.75;13.68;;;4.70;99.90;;;;;;5075047;28;20040;-25
2022/09/29 06:19:00;;;;;;;16.27;14.02;;;4.70;99.90;;;;;;5074814;28;20048;-26
2022/09/29 06:21:27;;;;;;;15.43;13.68;;;4.70;99.90;;;;;;5074616;28;20110;-26
2022/09/29 06:23:55;;;;;;;15.05;13.65;;;4.70;99.90;;;;;;5061344;28;20054;-26
2022/09/29 06:26:21;;;;;;;16.23;14.35;;;4.80;99.90;;;;;;5071447;28;20044;-25
2022/09/29 06:28:47;;;;;;;16.80;14.77;;;4.80;99.90;;;;;;5074963;28;20032;-25
2022/09/29 06:31:16;;;;;;;16.15;14.65;;;4.90;99.90;;;;;;5074446;28;20040;-26
2022/09/29 06:33:42;;;;;;;14.05;12.75;;;4.90;99.90;;;;;;5074436;28;20068;-26
2022/09/29 06:39:08;;;;;;;19.92;13.13;;;5.00;99.90;;;;;;5081213;28;20044;-26
2022/09/29 06:41:35;;;;;;;13.93;12.43;;;5.10;99.90;;;;;;5068455;28;20047;-26
2022/09/29 06:44:01;;;;;;;18.80;12.60;;;5.10;99.90;;;;;;5061557;28;20504;-26
2022/09/29 06:46:27;;;;;;;18.42;13.05;;;5.20;99.90;;;;;;5057987;28;20139;-26
2022/09/29 06:48:54;;;;;;;16.85;13.68;;;5.20;99.90;;;;;;5068652;28;20119;-26
2022/09/29 06:51:24;;;;;;;18.33;15.18;;;5.30;99.90;;;;;;5056872;28;20044;-26
2022/09/29 06:53:50;;;;;;;32.92;14.80;;;5.40;99.90;;;;;;5074398;28;20044;-25
2022/09/29 06:56:17;;;;;;;28.48;14.40;;;5.50;99.90;;;;;;5074465;28;20392;-25
2022/09/29 06:58:44;;;;;;;51.53;16.50;;;5.50;99.90;;;;;;5074394;28;20040;-28
2022/09/29 07:01:11;;;;;;;15.70;13.43;;;5.60;99.90;;;;;;5057168;28;20123;-25
2022/09/29 07:03:38;;;;;;;21.13;14.27;;;5.60;99.90;;;;;;5071038;28;20098;-25
2022/09/29 07:06:09;;;;;;;17.90;14.73;;;5.70;99.90;;;;;;5074067;28;20080;-26
2022/09/29 07:08:37;;;;;;;15.43;13.80;;;5.80;99.90;;;;;;5071610;28;20036;-26
2022/09/29 07:11:07;;;;;;;20.95;16.05;;;5.90;99.90;;;;;;5067322;28;20037;-26
2022/09/29 07:13:34;;;;;;;23.77;17.48;;;5.90;99.90;;;;;;5072993;28;20044;-25
2022/09/29 07:16:11;;;;;;;18.85;16.23;;;6.00;99.90;;;;;;5074095;28;20039;-26
2022/09/29 07:18:39;;;;;;;19.35;16.13;;;6.10;99.90;;;;;;5065382;28;20069;-26
2022/09/29 07:21:08;;;;;;;38.30;17.40;;;6.20;99.90;;;;;;5063630;28;20040;-25
2022/09/29 07:23:35;;;;;;;28.52;15.70;;;6.30;99.90;;;;;;5048995;28;20112;-25
2022/09/29 07:26:01;;;;;;;19.38;15.52;;;6.40;99.90;;;;;;5068132;28;20028;-26
2022/09/29 07:28:28;;;;;;;16.80;14.82;;;6.50;99.90;;;;;;5074180;28;20043;-25
2022/09/29 07:30:59;;;;;;;25.05;16.45;;;6.60;99.90;;;;;;5073892;28;20082;-26
2022/09/29 07:33:25;;;;;;;20.10;16.20;;;6.70;99.90;;;;;;5069021;28;20459;-25
2022/09/29 07:35:54;;;;;;;24.27;17.23;;;6.80;99.90;;;;;;5053650;28;20071;-26
2022/09/29 07:38:20;;;;;;;19.58;16.80;;;6.90;99.90;;;;;;5071053;28;20044;-26
2022/09/29 07:40:46;;;;;;;17.90;15.60;;;7.00;99.90;;;;;;5066968;28;20074;-26
2022/09/29 07:43:11;;;;;;;18.45;16.55;;;7.10;99.90;;;;;;5077598;28;20043;-26
2022/09/29 07:45:37;;;;;;;19.15;16.92;;;7.30;99.90;;;;;;5067910;28;20035;-26
2022/09/29 07:48:03;;;;;;;16.70;15.10;;;7.40;99.90;;;;;;5066566;28;20047;-26
2022/09/29 07:50:30;;;;;;;16.95;15.25;;;7.60;99.90;;;;;;5074056;28;20062;-26
2022/09/29 07:52:56;;;;;;;17.10;15.32;;;7.60;99.90;;;;;;5074186;28;20389;-27
2022/09/29 07:55:22;;;;;;;32.97;15.75;;;7.70;99.90;;;;;;5072448;28;20040;-27
2022/09/29 07:57:49;;;;;;;18.80;14.52;;;7.80;99.90;;;;;;5062589;28;20040;-27
2022/09/29 08:00:16;;;;;;;17.30;14.60;;;7.90;99.90;;;;;;5057295;28;20082;-27
2022/09/29 08:02:42;;;;;;;18.40;14.43;;;8.00;99.90;;;;;;5049880;28;20097;-27
2022/09/29 08:05:08;;;;;;;16.88;13.75;;;8.30;99.90;;;;;;5076746;28;20481;-26
2022/09/29 08:07:34;;;;;;;17.83;13.75;;;8.40;99.90;;;;;;5070896;28;20032;-26
2022/09/29 08:10:00;;;;;;;19.75;14.43;;;8.50;99.90;;;;;;5055973;28;20045;-27
2022/09/29 08:12:26;;;;;;;15.52;14.00;;;8.60;99.90;;;;;;5056047;28;20036;-28
2022/09/29 08:14:51;;;;;;;15.52;13.80;;;8.70;99.90;;;;;;5069491;28;20067;-27
2022/09/29 08:17:17;;;;;;;17.92;13.38;;;8.70;99.90;;;;;;5077107;28;20036;-27
2022/09/29 08:19:43;;;;;;;15.02;13.52;;;8.90;99.90;;;;;;5076937;28;20042;-26
2022/09/29 08:22:09;;;;;;;16.95;13.77;;;9.10;99.90;;;;;;5077331;28;20115;-27
2022/09/29 08:24:35;;;;;;;13.57;12.27;;;9.30;99.90;;;;;;5074659;28;20134;-27
2022/09/29 08:27:05;;;;;;;13.68;12.38;;;9.30;99.90;;;;;;5049403;28;20129;-28
2022/09/29 08:29:32;;;;;;;15.43;13.82;;;9.30;99.90;;;;;;5079264;28;20044;-27
2022/09/29 08:31:58;;;;;;;15.40;13.77;;;9.50;99.90;;;;;;5094991;28;20047;-25
2022/09/29 08:34:24;;;;;;;15.38;13.32;;;9.60;99.90;;;;;;5079026;28;20419;-25
2022/09/29 08:36:50;;;;;;;14.77;13.15;;;9.70;99.90;;;;;;5073528;28;20093;-27
2022/09/29 08:39:19;;;;;;;14.73;13.32;;;9.70;99.90;;;;;;5066543;28;20051;-27
2022/09/29 08:42:04;;;;;;;16.08;11.77;;;9.80;99.90;;;;;;5078884;28;20040;-27
2022/09/29 08:44:30;;;;;;;16.30;14.43;;;9.90;99.90;;;;;;5096917;28;20067;-27
2022/09/29 08:47:19;;;;;;;14.25;12.88;;;10.00;99.90;;;;;;5072245;28;20045;-27
2022/09/29 08:49:49;;;;;;;14.18;12.85;;;10.10;99.90;;;;;;5070626;28;20079;-28
2022/09/29 08:52:32;;;;;;;14.07;12.77;;;10.30;99.90;;;;;;5065648;28;20120;-26
2022/09/29 08:55:16;;;;;;;19.05;14.90;;;10.40;99.90;;;;;;5072061;28;20082;-26
2022/09/29 08:57:45;;;;;;;16.00;14.50;;;10.50;99.90;;;;;;5075185;28;20039;-26
2022/09/29 09:00:13;;;;;;;14.90;13.45;;;10.50;99.90;;;;;;5073320;28;20473;-26
2022/09/29 09:02:43;;;;;;;16.00;14.40;;;10.60;99.90;;;;;;5072961;28;20039;-26
2022/09/29 09:05:08;;;;;;;14.30;13.00;;;10.90;99.90;;;;;;5057705;28;20473;-26
2022/09/29 09:07:49;;;;;;;15.05;13.57;;;11.30;99.90;;;;;;5076103;28;20074;-26
2022/09/29 09:10:24;;;;;;;14.88;13.45;;;11.40;99.90;;;;;;5061370;28;20334;-26
2022/09/29 09:13:04;;;;;;;12.57;11.48;;;11.90;99.90;;;;;;5061475;28;20032;-26
2022/09/29 09:15:36;;;;;;;12.45;11.25;;;12.50;99.90;;;;;;5076172;28;20051;-26
2022/09/29 09:18:29;;;;;;;12.95;11.75;;;12.80;99.90;;;;;;5067195;28;20116;-26
2022/09/29 09:21:09;;;;;;;12.38;11.18;;;12.90;99.90;;;;;;5061041;28;20039;-26
2022/09/29 09:23:54;;;;;;;12.38;11.20;;;12.90;99.90;;;;;;5056012;28;20086;-26
2022/09/29 09:26:42;;;;;;;12.95;11.75;;;13.30;99.90;;;;;;5057575;28;20044;-26
2022/09/29 09:29:27;;;;;;;12.60;11.40;;;13.50;99.90;;;;;;5076031;28;20110;-26
2022/09/29 09:32:02;;;;;;;11.75;10.65;;;13.50;99.90;;;;;;5069337;28;20397;-27
2022/09/29 09:34:33;;;;;;;11.48;10.48;;;13.90;99.90;;;;;;5055900;28;20043;-26
2022/09/29 09:37:04;;;;;;;12.25;11.15;;;14.00;99.90;;;;;;5055889;28;20055;-26
2022/09/29 09:39:42;;;;;;;12.40;11.25;;;13.90;99.90;;;;;;5068135;28;20047;-26
2022/09/29 09:42:18;;;;;;;11.80;10.68;;;14.00;99.90;;;;;;5075720;28;20241;-27
2022/09/29 09:44:50;;;;;;;12.60;11.25;;;14.20;99.90;;;;;;5075592;28;20133;-27
2022/09/29 09:47:28;;;;;;;11.88;10.82;;;14.60;99.90;;;;;;5056581;28;20041;-27
2022/09/29 09:50:03;;;;;;;11.45;10.40;;;14.90;99.90;;;;;;5075673;28;20039;-27
2022/09/29 09:52:38;;;;;;;11.75;10.75;;;15.30;99.90;;;;;;5075531;28;20028;-27
2022/09/29 09:55:08;;;;;;;11.75;10.63;;;16.00;99.90;;;;;;5075597;28;20477;-27
2022/09/29 09:58:01;;;;;;;10.80;9.80;;;16.50;99.90;;;;;;5069731;28;20028;-28
2022/09/29 10:00:57;;;;;;;10.90;10.00;;;16.70;99.90;;;;;;5071311;28;20047;-28
2022/09/29 10:03:23;;;;;;;10.50;9.50;;;17.10;99.90;;;;;;5062396;28;20044;-28
2022/09/29 10:05:50;;;;;;;10.73;9.77;;;17.30;99.90;;;;;;5068245;28;20044;-28
2022/09/29 10:08:28;;;;;;;9.60;8.70;;;17.40;99.90;;;;;;5065747;28;20493;-28
2022/09/29 10:10:55;;;;;;;10.15;9.13;;;17.80;99.90;;;;;;5072882;28;20051;-28
2022/09/29 10:13:25;;;;;;;10.18;9.25;;;18.10;99.90;;;;;;5045742;28;20501;-28
2022/09/29 10:16:11;;;;;;;10.23;9.30;;;18.40;99.90;;;;;;5073536;28;20040;-28
2022/09/29 10:18:41;;;;;;;9.32;8.52;;;18.70;99.90;;;;;;5071557;28;20036;-28
2022/09/29 10:21:35;;;;;;;9.35;8.55;;;19.00;99.90;;;;;;5072766;28;20366;-28
2022/09/29 10:24:03;;;;;;;8.57;7.88;;;19.00;99.90;;;;;;5075117;28;20039;-28
2022/09/29 10:26:46;;;;;;;8.98;8.07;;;18.90;99.90;;;;;;5070186;28;20037;-28
2022/09/29 10:29:25;;;;;;;8.93;8.13;;;19.20;99.90;;;;;;5055661;28;20051;-28
2022/09/29 10:32:09;;;;;;;8.45;7.60;;;19.20;99.90;;;;;;5076698;28;20041;-28
2022/09/29 10:34:46;;;;;;;7.80;7.15;;;19.70;99.90;;;;;;5070641;28;20047;-28
2022/09/29 10:37:19;;;;;;;7.45;6.72;;;20.10;99.90;;;;;;5074780;28;20090;-28
2022/09/29 10:39:47;;;;;;;;;;;20.40;99.90;;;;;;5075062;28;20089;-28
2022/09/29 10:42:22;;;;;;;7.13;6.43;;;20.50;99.90;;;;;;5074057;28;19920;-28
2022/09/29 10:45:00;;;;;;;6.72;5.95;;;20.30;99.90;;;;;;5063642;28;20032;-28
2022/09/29 10:47:26;;;;;;;6.50;5.95;;;20.30;99.90;;;;;;5072523;28;20032;-28
2022/09/29 10:50:20;;;;;;;7.47;6.78;;;20.30;99.90;;;;;;5060650;28;20032;-28
2022/09/29 10:53:03;;;;;;;7.38;6.78;;;20.30;95.40;;;;;;5065797;28;20032;-28
2022/09/29 10:55:34;;;;;;;7.28;6.57;;;20.40;99.90;;;;;;5074600;28;20039;-28
2022/09/29 10:58:24;;;;;;;7.63;7.10;;;20.70;96.80;;;;;;5071119;28;20039;-28
2022/09/29 11:01:07;;;;;;;8.52;7.72;;;20.90;99.90;;;;;;5054427;28;20040;-28
2022/09/29 11:03:35;;;;;;;9.68;8.68;;;21.40;95.70;;;;;;5074111;28;20048;-28
2022/09/29 11:06:03;;;;;;;8.20;7.50;;;21.40;97.60;;;;;;5061640;28;20036;-28
2022/09/29 11:08:30;;;;;;;8.48;7.68;;;21.80;97.40;;;;;;5074304;28;20043;-28
2022/09/29 11:11:16;;;;;;;8.73;7.93;;;22.20;93.10;;;;;;5074653;28;20047;-28
2022/09/29 11:13:44;;;;;;;8.65;7.70;;;21.90;87.70;;;;;;5062727;28;20123;-28
2022/09/29 11:16:14;;;;;;;8.80;8.02;;;22.00;94.40;;;;;;5066441;28;20409;-28
2022/09/29 11:18:43;;;;;;;8.38;7.78;;;22.30;89.00;;;;;;5072930;28;20040;-28
2022/09/29 11:21:09;;;;;;;8.27;7.57;;;22.70;85.60;;;;;;5092029;28;20081;-28
2022/09/29 11:24:04;;;;;;;8.15;7.55;;;22.70;82.00;;;;;;5074130;28;20477;-28
2022/09/29 11:26:40;;;;;;;7.47;6.93;;;22.50;67.00;;;;;;5049502;28;20123;-28
2022/09/29 11:29:33;;;;;;;8.75;7.97;;;21.60;72.90;;;;;;5073886;28;20123;-27
2022/09/29 11:32:05;;;;;;;6.80;6.30;;;20.90;82.30;;;;;;5057665;28;20083;-28
2022/09/29 11:35:09;;;;;;;7.45;6.85;;;20.30;90.40;;;;;;5054207;28;20138;-27
2022/09/29 11:37:50;;;;;;;8.27;7.55;;;20.30;92.70;;;;;;5074019;28;20075;-27
2022/09/29 11:40:22;;;;;;;8.85;8.15;;;20.70;92.50;;;;;;5055718;28;20389;-27
2022/09/29 11:43:28;;;;;;;7.88;7.22;;;21.30;90.70;;;;;;5053721;28;20051;-28
2022/09/29 11:46:05;;;;;;;7.97;7.28;;;22.00;79.60;;;;;;4970710;28;20046;-27
2022/09/29 11:48:53;;;;;;;7.68;7.07;;;22.30;70.30;;;;;;5041225;28;20314;-27
2022/09/29 11:51:36;;;;;;;6.82;6.22;;;22.40;73.00;;;;;;5059187;28;20495;-28
2022/09/29 11:54:18;;;;;;;5.32;4.93;;;22.60;63.10;;;;;;5057878;28;20076;-28
2022/09/29 11:56:56;;;;;;;6.00;5.60;;;22.40;60.00;;;;;;5057826;28;20037;-28
2022/09/29 11:59:40;;;;;;;6.80;6.20;;;22.60;63.00;;;;;;5067936;28;20486;-28
2022/09/29 12:02:18;;;;;;;6.50;6.00;;;22.40;59.90;;;;;;5072550;28;20040;-28
2022/09/29 12:04:56;;;;;;;5.35;4.50;;;21.80;64.90;;;;;;5095689;28;20109;-28
2022/09/29 12:07:56;;;;;;;4.63;4.22;;;21.50;64.40;;;;;;5077789;28;20040;-28
2022/09/29 12:10:31;;;;;;;4.72;4.32;;;21.60;65.70;;;;;;5072342;28;20037;-28
2022/09/29 12:13:19;;;;;;;3.92;3.60;;;21.60;65.10;;;;;;5077693;28;20488;-28
2022/09/29 12:16:24;;;;;;;3.88;3.58;;;21.30;64.00;;;;;;5077709;28;20040;-27
2022/09/29 12:19:03;;;;;;;5.82;4.20;;;21.30;60.00;;;;;;5077044;28;20474;-27
2022/09/29 12:21:39;;;;;;;3.33;3.03;;;21.70;69.00;;;;;;5076995;28;20040;-28
2022/09/29 12:24:10;;;;;;;3.40;3.20;;;22.10;57.10;;;;;;5077332;28;20036;-28
2022/09/29 12:26:37;;;;;;;3.75;3.45;;;22.60;56.60;;;;;;5077634;28;20085;-28
2022/09/29 12:29:32;;;;;;;4.93;4.53;;;23.80;54.10;;;;;;5077324;28;20040;-28
2022/09/29 12:32:01;;;;;;;4.35;3.95;;;24.10;53.10;;;;;;5064670;28;20519;-28
2022/09/29 12:34:38;;;;;;;3.90;3.60;;;24.80;51.60;;;;;;5077230;28;20043;-28
2022/09/29 12:37:10;;;;;;;3.10;2.67;;;24.90;51.40;;;;;;5067183;28;20570;-28
2022/09/29 12:40:00;;;;;;;3.58;2.70;;;25.10;50.20;;;;;;5077200;28;20051;-28
2022/09/29 12:42:42;;;;;;;4.00;3.70;;;25.30;47.50;;;;;;5076761;28;20064;-28
2022/09/29 12:45:07;;;;;;;3.08;2.85;;;25.90;47.90;;;;;;5076639;28;20153;-26
2022/09/29 12:48:12;;;;;;;3.20;2.90;;;26.30;47.90;;;;;;5076891;28;20061;-26
2022/09/29 12:50:45;;;;;;;2.90;2.70;;;26.50;46.80;;;;;;5076935;28;20093;-26
2022/09/29 12:53:28;;;;;;;3.38;3.05;;;26.70;45.50;;;;;;5075202;28;20097;-27
2022/09/29 12:55:57;;;;;;;4.77;4.37;;;27.00;43.20;;;;;;5074794;28;20035;-27
2022/09/29 12:58:38;;;;;;;4.07;3.78;;;27.40;45.10;;;;;;5074808;28;20055;-27
2022/09/29 13:01:28;;;;;;;4.00;3.70;;;27.30;44.60;;;;;;5074560;28;20414;-27
2022/09/29 13:04:03;;;;;;;3.47;3.17;;;27.70;40.50;;;;;;5069255;28;20028;-27
2022/09/29 13:07:00;;;;;;;3.53;3.22;;;28.00;43.10;;;;;;5074841;28;20121;-27
2022/09/29 13:09:35;;;;;;;2.58;2.30;;;28.40;41.60;;;;;;5070390;28;20482;-27
2022/09/29 13:12:14;;;;;;;3.00;2.80;;;28.40;43.00;;;;;;5056194;28;20040;-27